Saturday, July 21, 2018, 3:20 PM EDT
Back to Local

KGFL, Floyd Bennett Memorial Airport

Location: Queensbury, NY, United States Lat: 43.333
Local Time: 3:20 PM EDT (19:20 GMT) Lon: -73.617
Time Zone: US/Eastern Elev: 328 ft

Show me the last for .
Show Decoded

2018-07-21 14:53 METAR KGFL 211853Z AUTO VRB05KT 10SM FEW060 28/14 A3004 RMK AO2 SLP171 T02780139
                 =
2018-07-21 13:53 METAR KGFL 211753Z AUTO 10009KT 10SM CLR 27/13 A3006 RMK AO2 SLP178 T02720133
                 10278 20194 58021 =
2018-07-21 12:53 METAR KGFL 211653Z AUTO VRB06KT 10SM CLR 26/13 A3009 RMK AO2 SLP187 T02610133 =
2018-07-21 11:53 METAR KGFL 211553Z AUTO 19005KT 10SM CLR 24/14 A3011 RMK AO2 SLP196 T02440139 =
2018-07-21 10:53 METAR KGFL 211453Z AUTO 17006KT 10SM CLR 24/13 A3012 RMK AO2 SLP199 T02390128
                 58002 =
2018-07-21 09:53 METAR KGFL 211353Z AUTO 20003KT 10SM CLR 22/14 A3013 RMK AO2 SLP200 T02170144 =
2018-07-21 08:53 METAR KGFL 211253Z AUTO 20006KT 10SM CLR 21/14 A3013 RMK AO2 SLP201 T02110144 =
2018-07-21 07:53 METAR KGFL 211153Z AUTO 00000KT 10SM CLR 19/14 A3013 RMK AO2 SLP201 T01940144
                 10194 20117 51005 =
2018-07-21 06:53 METAR KGFL 211053Z AUTO 00000KT 10SM CLR 16/14 A3013 RMK AO2 SLP201 T01560144 =
2018-07-21 06:24 METAR KGFL 211024Z AUTO 00000KT 10SM CLR 13/13 A3013 RMK AO2 T01330128 =
2018-07-21 06:17 METAR KGFL 211017Z AUTO 00000KT 2SM BR CLR 13/13 A3013 RMK AO2 T01280128 =
2018-07-21 06:09 METAR KGFL 211009Z AUTO 00000KT 1/2SM FG CLR 12/12 A3013 RMK AO2 VIS 1/4V5
                 T01170117 =
2018-07-21 05:53 METAR KGFL 210953Z AUTO 00000KT 1/4SM FG CLR 12/12 A3013 RMK AO2 SLP202
                 T01220122 =
2018-07-21 05:45 METAR KGFL 210945Z AUTO 00000KT 1/4SM FG VV002 12/12 A3013 RMK AO2 T01220122 =
2018-07-21 05:40 METAR KGFL 210940Z AUTO 00000KT 1 1/4SM BR CLR 12/12 A3013 RMK AO2 VIS 1/2V2 1/2
                 T01220122 =
2018-07-21 05:33 METAR KGFL 210933Z AUTO 00000KT 1/4SM FG CLR 13/12 A3013 RMK AO2 T01280122 =
2018-07-21 05:08 METAR KGFL 210908Z AUTO 00000KT 1/2SM FG CLR 12/12 A3012 RMK AO2 T01220122 =
2018-07-21 04:58 METAR KGFL 210858Z AUTO 00000KT 1 3/4SM BR CLR 13/13 A3012 RMK AO2 VIS 3/4V5
                 T01280128 =
2018-07-21 04:53 METAR KGFL 210853Z AUTO 00000KT 3SM BR CLR 13/13 A3012 RMK AO2 SLP197 T01330128
                 51006 =
2018-07-21 03:53 METAR KGFL 210753Z AUTO 00000KT 9SM CLR 14/13 A3011 RMK AO2 SLP196 T01390133 =
2018-07-21 03:14 METAR KGFL 210714Z AUTO 22003KT 4SM BR CLR 13/13 A3010 RMK AO2 T01330133 =
2018-07-21 03:05 METAR KGFL 210705Z AUTO 00000KT 1 3/4SM BR CLR 13/13 A3010 RMK AO2 T01330133 =
2018-07-21 02:53 METAR KGFL 210653Z AUTO 00000KT 10SM CLR 14/14 A3010 RMK AO2 SLP192 T01390139 =
2018-07-21 01:53 METAR KGFL 210553Z AUTO 00000KT 10SM CLR 14/14 A3010 RMK AO2 SLP191 T01440139
                 10250 20144 51003 =
2018-07-21 00:53 METAR KGFL 210453Z AUTO 00000KT 10SM CLR 17/14 A3010 RMK AO2 SLP190 T01670144
                 402940094 =
2018-07-20 23:53 METAR KGFL 210353Z AUTO 00000KT 10SM CLR 17/15 A3010 RMK AO2 SLP190 T01720150 =
2018-07-20 22:53 METAR KGFL 210253Z AUTO 00000KT 10SM CLR 19/16 A3009 RMK AO2 SLP188 T01890156
                 51009 =
2018-07-20 21:53 METAR KGFL 210153Z AUTO 16004KT 10SM CLR 22/15 A3009 RMK AO2 SLP187 T02220150 =
2018-07-20 20:53 METAR KGFL 210053Z AUTO 16005KT 10SM CLR 24/16 A3008 RMK AO2 SLP183 T02390156 =
2018-07-20 19:53 METAR KGFL 202353Z AUTO 18004KT 10SM CLR 26/16 A3006 RMK AO2 SLP178 T02560156
                 10294 20256 55003 =
2018-07-20 18:53 METAR KGFL 202253Z AUTO 19005KT 10SM CLR 28/15 A3006 RMK AO2 SLP176 T02830150 =
2018-07-20 17:53 METAR KGFL 202153Z AUTO 20008KT 10SM CLR 29/14 A3006 RMK AO2 SLP179 T02940144 =
2018-07-20 16:53 METAR KGFL 202053Z AUTO 21007KT 10SM CLR 29/14 A3007 RMK AO2 SLP182 T02940144
                 56016 =
2018-07-20 15:53 METAR KGFL 201953Z AUTO 20009KT 10SM CLR 29/13 A3008 RMK AO2 SLP186 T02940133 =

Support USWX by starting your Amazon purchase here.